Time;durP1;ratioP1;P1;durP2;ratioP2;P2;SDS_P1;SDS_P2;PMS_P1;PMS_P2;Temp;Humidity;BMP_temperature;BMP_pressure;BME280_temperature;BME280_humidity;BME280_pressure;Samples;Min_cycle;Max_cycle;Signal;HPM_P1;HPM_P2
2020/12/20 00:00:25;;;;;;;5.65;0.93;;;;;;;;;;6096388;23;20026;-53
2020/12/20 00:02:56;;;;;;;7.65;0.68;;;;;;;;;;6096696;23;20309;-55
2020/12/20 00:05:24;;;;;;;4.20;0.68;;;;;;;;;;6090480;23;20006;-54
2020/12/20 00:07:53;;;;;;;3.28;0.80;;;;;;;;;;6096572;23;20065;-55
2020/12/20 00:10:20;;;;;;;4.20;0.82;;;;;;;;;;6098013;23;20006;-51
2020/12/20 00:12:48;;;;;;;3.70;0.88;;;;;;;;;;6072470;23;20013;-55
2020/12/20 00:15:15;;;;;;;4.25;0.68;;;;;;;;;;6097944;23;20010;-52
2020/12/20 00:17:46;;;;;;;2.47;0.80;;;;;;;;;;6098070;23;20006;-50
2020/12/20 00:20:13;;;;;;;3.70;0.57;;;;;;;;;;6098044;23;20016;-56
2020/12/20 00:22:41;;;;;;;3.97;0.80;;;;;;;;;;6097696;23;20062;-51
2020/12/20 00:25:08;;;;;;;7.45;0.93;;;;;;;;;;6097850;23;20011;-54
2020/12/20 00:27:35;;;;;;;3.10;0.90;;;;;;;;;;6098141;23;20007;-57
2020/12/20 00:30:02;;;;;;;2.22;0.80;;;;;;;;;;6097897;23;20026;-56
2020/12/20 00:32:29;;;;;;;2.95;1.02;;;;;;;;;;6097990;23;20030;-56
2020/12/20 00:34:56;;;;;;;4.35;0.90;;;;;;;;;;6097776;23;20014;-56
2020/12/20 00:37:23;;;;;;;7.93;1.10;;;;;;;;;;6097887;23;20037;-55
2020/12/20 00:39:51;;;;;;;3.35;1.15;;;;;;;;;;6097957;23;20033;-53
2020/12/20 00:42:18;;;;;;;5.47;1.00;;;;;;;;;;6098046;23;20304;-53
2020/12/20 00:44:45;;;;;;;3.72;0.65;;;;;;;;;;6097828;23;20029;-52
2020/12/20 00:47:12;;;;;;;2.08;1.13;;;;;;;;;;6097746;23;20005;-52
2020/12/20 00:49:39;;;;;;;12.80;1.23;;;;;;;;;;6072213;23;20010;-53
2020/12/20 00:52:07;;;;;;;4.00;0.80;;;;;;;;;;6097586;23;20462;-55
2020/12/20 00:54:36;;;;;;;3.97;1.00;;;;;;;;;;6072003;23;20327;-55
2020/12/20 00:57:03;;;;;;;3.95;1.00;;;;;;;;;;6097709;23;20052;-54
2020/12/20 00:59:30;;;;;;;2.50;1.17;;;;;;;;;;6097634;23;20074;-56
2020/12/20 01:02:01;;;;;;;4.80;1.45;;;;;;;;;;6097398;23;20011;-55
2020/12/20 01:04:28;;;;;;;6.57;1.30;;;;;;;;;;6097720;23;20003;-54
2020/12/20 01:06:55;;;;;;;2.38;1.42;;;;;;;;;;6097658;23;20013;-55
2020/12/20 01:09:22;;;;;;;3.15;1.38;;;;;;;;;;6097490;23;20002;-54
2020/12/20 01:11:50;;;;;;;7.18;1.52;;;;;;;;;;6097494;23;20014;-55
2020/12/20 01:14:16;;;;;;;5.30;1.70;;;;;;;;;;6097539;23;20006;-54
2020/12/20 01:16:43;;;;;;;7.25;2.30;;;;;;;;;;6097502;23;20040;-55
2020/12/20 01:19:10;;;;;;;12.95;3.08;;;;;;;;;;6097420;23;20324;-54
2020/12/20 01:21:38;;;;;;;4.07;1.50;;;;;;;;;;6097654;23;20439;-53
2020/12/20 01:24:05;;;;;;;3.08;1.50;;;;;;;;;;6097035;23;20009;-52
2020/12/20 01:26:32;;;;;;;4.55;1.60;;;;;;;;;;6097378;23;20019;-55
2020/12/20 01:28:59;;;;;;;7.68;2.60;;;;;;;;;;6097450;23;20427;-55
2020/12/20 01:31:26;;;;;;;4.30;1.90;;;;;;;;;;6097278;23;20312;-53
2020/12/20 01:33:53;;;;;;;6.65;1.98;;;;;;;;;;6097266;23;20057;-55
2020/12/20 01:36:20;;;;;;;3.83;1.58;;;;;;;;;;6072403;23;20379;-53
2020/12/20 01:38:48;;;;;;;6.82;1.65;;;;;;;;;;6097333;23;20383;-55
2020/12/20 01:41:15;;;;;;;6.32;1.77;;;;;;;;;;6097121;23;20011;-55
2020/12/20 01:43:43;;;;;;;5.78;1.70;;;;;;;;;;6097399;23;20005;-54
2020/12/20 01:46:11;;;;;;;6.63;1.45;;;;;;;;;;6097163;23;20006;-55
2020/12/20 01:48:38;;;;;;;9.82;1.65;;;;;;;;;;6096927;23;20002;-53
2020/12/20 01:51:06;;;;;;;5.82;1.67;;;;;;;;;;6097321;23;20037;-48
2020/12/20 01:53:33;;;;;;;6.50;2.13;;;;;;;;;;6097144;23;20045;-53
2020/12/20 01:56:01;;;;;;;5.15;1.70;;;;;;;;;;6097166;23;20037;-50
2020/12/20 01:58:28;;;;;;;6.70;1.52;;;;;;;;;;6097317;23;20029;-53
2020/12/20 02:00:56;;;;;;;5.75;1.65;;;;;;;;;;6096941;23;20002;-49
2020/12/20 02:03:24;;;;;;;4.55;1.95;;;;;;;;;;6096913;23;20416;-50
2020/12/20 02:05:52;;;;;;;4.68;1.75;;;;;;;;;;6097220;23;20058;-53
2020/12/20 02:08:19;;;;;;;3.92;1.45;;;;;;;;;;6097037;23;20033;-49
2020/12/20 02:11:04;;;;;;;4.05;1.50;;;;;;;;;;6096928;23;20010;-51
2020/12/20 02:13:31;;;;;;;3.65;1.35;;;;;;;;;;6096944;23;19998;-56
2020/12/20 02:15:58;;;;;;;2.80;1.23;;;;;;;;;;6072114;23;20455;-52
2020/12/20 02:18:25;;;;;;;6.53;1.48;;;;;;;;;;6096724;23;20427;-56
2020/12/20 02:20:52;;;;;;;3.05;1.23;;;;;;;;;;6096939;23;20077;-55
2020/12/20 02:23:20;;;;;;;3.88;1.45;;;;;;;;;;6096932;23;20081;-57
2020/12/20 02:25:51;;;;;;;3.10;1.35;;;;;;;;;;6071089;23;20087;-54
2020/12/20 02:28:18;;;;;;;8.00;1.50;;;;;;;;;;6096559;23;20391;-51
2020/12/20 02:30:45;;;;;;;3.10;1.40;;;;;;;;;;6096589;23;20335;-52
2020/12/20 02:33:12;;;;;;;6.50;1.85;;;;;;;;;;6097015;23;19998;-52
2020/12/20 02:35:43;;;;;;;3.85;1.40;;;;;;;;;;6096856;23;20053;-51
2020/12/20 02:38:10;;;;;;;3.17;1.63;;;;;;;;;;6096795;23;20113;-53
2020/12/20 02:40:39;;;;;;;4.30;1.58;;;;;;;;;;6096936;23;19999;-50
2020/12/20 02:43:06;;;;;;;4.13;1.40;;;;;;;;;;6096595;23;20007;-49
2020/12/20 02:45:33;;;;;;;6.47;1.60;;;;;;;;;;6096758;23;19999;-54
2020/12/20 02:48:00;;;;;;;3.85;1.67;;;;;;;;;;6096912;23;20005;-57
2020/12/20 02:50:27;;;;;;;2.83;1.60;;;;;;;;;;6096479;23;20354;-56
2020/12/20 02:52:54;;;;;;;2.92;1.25;;;;;;;;;;6096507;23;20494;-56
2020/12/20 02:55:21;;;;;;;5.82;1.67;;;;;;;;;;6096651;23;20033;-56
2020/12/20 02:57:48;;;;;;;3.85;1.40;;;;;;;;;;6096620;23;20018;-53
2020/12/20 03:00:15;;;;;;;4.75;1.48;;;;;;;;;;6096685;23;20074;-55
2020/12/20 03:02:42;;;;;;;2.78;1.50;;;;;;;;;;6097013;23;20029;-54
2020/12/20 03:05:09;;;;;;;7.43;1.40;;;;;;;;;;6096480;23;20006;-55
2020/12/20 03:07:36;;;;;;;3.28;1.23;;;;;;;;;;6096621;23;20003;-55
2020/12/20 03:10:04;;;;;;;5.45;2.30;;;;;;;;;;6096846;23;20010;-54
2020/12/20 03:12:31;;;;;;;4.65;1.48;;;;;;;;;;6096560;23;20539;-55
2020/12/20 03:14:58;;;;;;;4.53;1.63;;;;;;;;;;6070979;23;20300;-54
2020/12/20 03:17:25;;;;;;;6.85;1.58;;;;;;;;;;6096744;23;20014;-55
2020/12/20 03:19:52;;;;;;;2.30;1.27;;;;;;;;;;6096969;23;20049;-55
2020/12/20 03:22:19;;;;;;;3.15;1.38;;;;;;;;;;6096419;23;20074;-54
2020/12/20 03:24:46;;;;;;;5.03;1.27;;;;;;;;;;6096355;23;20062;-56
2020/12/20 03:27:13;;;;;;;3.40;1.55;;;;;;;;;;6096700;23;19998;-54
2020/12/20 03:29:40;;;;;;;3.05;1.38;;;;;;;;;;6096550;23;20458;-53
2020/12/20 03:32:07;;;;;;;5.10;1.48;;;;;;;;;;6096479;23;20153;-55
2020/12/20 03:34:34;;;;;;;2.08;1.40;;;;;;;;;;6096751;23;20007;-55
2020/12/20 03:37:01;;;;;;;3.00;1.13;;;;;;;;;;6096506;23;20006;-53
2020/12/20 03:39:29;;;;;;;2.95;1.15;;;;;;;;;;6098509;23;20077;-55
2020/12/20 03:41:56;;;;;;;3.13;1.25;;;;;;;;;;6098356;23;20066;-55
2020/12/20 03:44:23;;;;;;;3.85;1.13;;;;;;;;;;6098193;23;20069;-53
2020/12/20 03:46:50;;;;;;;3.17;1.35;;;;;;;;;;6098177;23;20482;-55
2020/12/20 03:49:17;;;;;;;9.30;1.85;;;;;;;;;;6098501;23;20029;-54
2020/12/20 03:51:44;;;;;;;5.65;1.80;;;;;;;;;;6098306;23;20017;-53
2020/12/20 03:54:11;;;;;;;2.53;1.20;;;;;;;;;;6072603;23;20335;-55
2020/12/20 03:56:38;;;;;;;5.57;1.50;;;;;;;;;;6098415;23;20011;-54
2020/12/20 03:59:05;;;;;;;2.20;1.10;;;;;;;;;;6098214;23;20025;-54
2020/12/20 04:01:32;;;;;;;1.58;1.10;;;;;;;;;;6098098;23;20375;-53
2020/12/20 04:03:59;;;;;;;3.17;1.35;;;;;;;;;;6098412;23;19999;-53
2020/12/20 04:06:26;;;;;;;1.90;1.08;;;;;;;;;;6098193;23;20077;-53
2020/12/20 04:08:53;;;;;;;2.08;1.20;;;;;;;;;;6098239;23;20033;-54
2020/12/20 04:11:20;;;;;;;3.15;1.58;;;;;;;;;;6098065;23;20448;-53
2020/12/20 04:13:47;;;;;;;4.65;1.20;;;;;;;;;;6098049;23;20323;-53
2020/12/20 04:16:14;;;;;;;4.68;1.35;;;;;;;;;;6098124;23;20394;-55
2020/12/20 04:18:41;;;;;;;4.20;1.38;;;;;;;;;;6098297;23;20002;-55
2020/12/20 04:21:08;;;;;;;6.70;1.30;;;;;;;;;;6098044;23;20006;-56
2020/12/20 04:23:35;;;;;;;2.58;1.20;;;;;;;;;;6072274;23;20424;-54
2020/12/20 04:26:02;;;;;;;2.47;1.10;;;;;;;;;;6097950;23;20054;-54
2020/12/20 04:28:29;;;;;;;4.05;1.13;;;;;;;;;;6097831;23;20003;-55
2020/12/20 04:30:56;;;;;;;4.07;1.23;;;;;;;;;;6097881;23;20098;-55
2020/12/20 04:33:23;;;;;;;4.25;1.20;;;;;;;;;;6098154;23;20030;-53
2020/12/20 04:35:50;;;;;;;4.95;1.17;;;;;;;;;;6097935;23;20002;-55
2020/12/20 04:38:17;;;;;;;3.05;1.30;;;;;;;;;;6097844;23;20332;-55
2020/12/20 04:40:44;;;;;;;2.47;1.38;;;;;;;;;;6098218;23;20402;-53
2020/12/20 04:43:12;;;;;;;8.80;1.38;;;;;;;;;;6072537;23;20022;-54
2020/12/20 04:45:39;;;;;;;2.85;1.50;;;;;;;;;;6097824;23;20012;-51
2020/12/20 04:48:06;;;;;;;7.35;1.27;;;;;;;;;;6097930;23;20008;-54
2020/12/20 04:50:34;;;;;;;4.32;0.95;;;;;;;;;;6097387;23;20058;-54
2020/12/20 04:53:01;;;;;;;1.92;0.90;;;;;;;;;;6097587;23;20011;-54
2020/12/20 04:55:28;;;;;;;3.75;1.05;;;;;;;;;;6097724;23;20553;-53
2020/12/20 04:57:56;;;;;;;1.38;0.70;;;;;;;;;;6097654;23;20428;-52
2020/12/20 05:00:23;;;;;;;3.30;1.05;;;;;;;;;;6097668;23;20025;-55
2020/12/20 05:02:50;;;;;;;3.47;1.10;;;;;;;;;;6097953;23;20158;-49
2020/12/20 05:05:17;;;;;;;3.70;1.08;;;;;;;;;;6098005;23;20074;-51
2020/12/20 05:07:45;;;;;;;3.35;1.00;;;;;;;;;;6097520;23;20010;-57
2020/12/20 05:10:12;;;;;;;3.22;1.20;;;;;;;;;;6071939;23;20007;-54
2020/12/20 05:12:39;;;;;;;1.50;1.25;;;;;;;;;;6097713;23;20006;-56
2020/12/20 05:15:18;;;;;;;4.40;1.30;;;;;;;;;;6097565;23;20006;-55
2020/12/20 05:17:45;;;;;;;3.08;1.58;;;;;;;;;;6071985;23;20037;-54
2020/12/20 05:20:14;;;;;;;3.20;1.25;;;;;;;;;;6097651;23;20009;-54
2020/12/20 05:22:41;;;;;;;4.57;1.10;;;;;;;;;;6097264;23;20058;-54
2020/12/20 05:25:18;;;;;;;3.35;1.50;;;;;;;;;;6097230;23;20058;-54
2020/12/20 05:27:45;;;;;;;3.85;1.20;;;;;;;;;;6097719;23;20007;-55
2020/12/20 05:30:12;;;;;;;2.50;1.10;;;;;;;;;;6097483;23;20085;-54
2020/12/20 05:32:43;;;;;;;4.03;1.27;;;;;;;;;;6071889;23;20018;-53
2020/12/20 05:35:11;;;;;;;1.67;0.80;;;;;;;;;;6097281;23;20002;-55
2020/12/20 05:37:38;;;;;;;7.18;1.00;;;;;;;;;;6097482;23;20074;-52
2020/12/20 05:40:07;;;;;;;3.15;1.20;;;;;;;;;;6097260;23;20005;-55
2020/12/20 05:42:34;;;;;;;4.88;1.65;;;;;;;;;;6097315;23;20007;-53
2020/12/20 05:45:10;;;;;;;3.03;1.15;;;;;;;;;;6097473;23;20002;-53
2020/12/20 05:47:38;;;;;;;4.05;1.13;;;;;;;;;;6097321;23;20003;-55
2020/12/20 05:50:05;;;;;;;7.20;1.17;;;;;;;;;;6097116;23;20037;-53
2020/12/20 05:52:33;;;;;;;2.28;1.20;;;;;;;;;;6096837;23;20021;-53
2020/12/20 05:55:00;;;;;;;3.50;0.90;;;;;;;;;;6071804;23;20380;-54
2020/12/20 05:57:27;;;;;;;2.83;1.27;;;;;;;;;;6097088;23;20026;-53
2020/12/20 05:59:54;;;;;;;3.35;1.35;;;;;;;;;;6097058;23;20002;-54
2020/12/20 06:02:21;;;;;;;3.92;1.25;;;;;;;;;;6096860;23;19999;-54
2020/12/20 06:04:49;;;;;;;3.78;1.10;;;;;;;;;;6097025;23;20012;-55
2020/12/20 06:07:16;;;;;;;3.42;1.00;;;;;;;;;;6096822;23;20002;-57
2020/12/20 06:09:55;;;;;;;1.73;0.90;;;;;;;;;;6097218;23;20053;-57
2020/12/20 06:12:24;;;;;;;3.78;1.13;;;;;;;;;;6097130;23;20069;-57
2020/12/20 06:14:52;;;;;;;3.55;0.90;;;;;;;;;;6096976;23;19999;-56
2020/12/20 06:17:23;;;;;;;2.47;0.95;;;;;;;;;;6096604;23;20372;-57
2020/12/20 06:19:51;;;;;;;2.08;1.13;;;;;;;;;;6097188;23;20458;-57
2020/12/20 06:22:25;;;;;;;3.58;1.17;;;;;;;;;;6096963;23;20003;-57
2020/12/20 06:24:54;;;;;;;4.65;1.00;;;;;;;;;;6096652;23;20015;-56
2020/12/20 06:27:22;;;;;;;5.13;1.40;;;;;;;;;;6096922;23;20074;-55
2020/12/20 06:29:50;;;;;;;1.58;0.88;;;;;;;;;;6096898;23;20006;-55
2020/12/20 06:32:19;;;;;;;5.85;1.30;;;;;;;;;;6096674;23;20022;-57
2020/12/20 06:34:46;;;;;;;1.75;1.00;;;;;;;;;;6096535;23;20332;-57
2020/12/20 06:37:13;;;;;;;3.38;1.00;;;;;;;;;;6071378;23;20388;-55
2020/12/20 06:39:41;;;;;;;3.10;0.90;;;;;;;;;;6096705;23;19998;-55
2020/12/20 06:42:08;;;;;;;3.28;1.20;;;;;;;;;;6096731;23;20010;-56
2020/12/20 06:44:35;;;;;;;5.13;1.02;;;;;;;;;;6096822;23;20077;-57
2020/12/20 06:47:02;;;;;;;2.45;1.17;;;;;;;;;;6071289;23;20089;-57
2020/12/20 06:49:32;;;;;;;2.10;0.93;;;;;;;;;;6096680;23;20002;-58
2020/12/20 06:52:17;;;;;;;2.45;0.88;;;;;;;;;;6096429;23;20018;-57
2020/12/20 06:55:03;;;;;;;1.60;1.00;;;;;;;;;;6096689;23;20427;-57
2020/12/20 06:57:30;;;;;;;3.25;1.30;;;;;;;;;;6096723;23;20007;-56
2020/12/20 06:59:57;;;;;;;2.80;0.88;;;;;;;;;;6096797;23;19998;-57
2020/12/20 07:02:54;;;;;;;2.90;1.10;;;;;;;;;;6096741;23;20085;-55
2020/12/20 07:05:39;;;;;;;2.88;0.80;;;;;;;;;;6084435;23;20002;-57
2020/12/20 07:08:07;;;;;;;3.95;1.30;;;;;;;;;;6096486;23;20415;-57
2020/12/20 07:10:44;;;;;;;4.15;1.60;;;;;;;;;;6096599;23;20394;-55
2020/12/20 07:13:12;;;;;;;4.80;1.27;;;;;;;;;;6096609;23;20009;-57
2020/12/20 07:15:52;;;;;;;3.97;1.20;;;;;;;;;;6096772;23;20002;-57
2020/12/20 07:18:38;;;;;;;3.05;1.20;;;;;;;;;;6096646;23;20007;-58
2020/12/20 07:21:05;;;;;;;2.92;1.13;;;;;;;;;;6096723;23;20013;-56
2020/12/20 07:23:32;;;;;;;7.97;2.20;;;;;;;;;;6096613;23;20002;-56
2020/12/20 07:25:59;;;;;;;3.53;1.30;;;;;;;;;;6096330;23;20026;-56
2020/12/20 07:28:26;;;;;;;4.32;1.38;;;;;;;;;;6096582;23;19999;-56
2020/12/20 07:30:53;;;;;;;5.10;1.85;;;;;;;;;;6096398;23;20494;-58
2020/12/20 07:33:20;;;;;;;4.03;1.33;;;;;;;;;;6096553;23;20013;-55
2020/12/20 07:35:47;;;;;;;2.80;1.25;;;;;;;;;;6096728;23;19999;-55
2020/12/20 07:38:16;;;;;;;4.72;1.30;;;;;;;;;;6096475;23;20010;-55
2020/12/20 07:40:43;;;;;;;3.92;1.70;;;;;;;;;;6096507;23;20009;-55
2020/12/20 07:43:10;;;;;;;3.22;1.20;;;;;;;;;;6096486;23;20014;-53
2020/12/20 07:45:36;;;;;;;4.65;1.33;;;;;;;;;;6096421;23;19999;-55
2020/12/20 07:48:04;;;;;;;3.92;1.30;;;;;;;;;;6096491;23;20038;-53
2020/12/20 07:50:31;;;;;;;2.83;1.05;;;;;;;;;;6071311;23;20003;-54
2020/12/20 07:52:57;;;;;;;3.22;1.15;;;;;;;;;;6096514;23;20011;-50
2020/12/20 07:55:24;;;;;;;3.30;1.20;;;;;;;;;;6096243;23;20006;-50
2020/12/20 07:57:53;;;;;;;4.82;1.52;;;;;;;;;;6096618;23;19999;-50
2020/12/20 08:00:20;;;;;;;4.28;1.52;;;;;;;;;;6096417;23;20106;-48
2020/12/20 08:02:47;;;;;;;4.30;1.70;;;;;;;;;;6096379;23;20006;-49
2020/12/20 08:05:15;;;;;;;2.97;1.40;;;;;;;;;;6096611;23;20010;-48
2020/12/20 08:07:42;;;;;;;4.32;1.55;;;;;;;;;;6096659;23;19999;-49
2020/12/20 08:10:09;;;;;;;4.70;1.60;;;;;;;;;;6096370;23;20006;-48
2020/12/20 08:12:36;;;;;;;2.30;1.20;;;;;;;;;;6096297;23;20408;-49
2020/12/20 08:15:05;;;;;;;3.05;1.25;;;;;;;;;;6096375;23;20010;-48
2020/12/20 08:17:32;;;;;;;1.80;1.00;;;;;;;;;;6096368;23;20006;-48
2020/12/20 08:20:02;;;;;;;3.58;1.10;;;;;;;;;;6096134;23;20077;-48
2020/12/20 08:22:30;;;;;;;2.42;0.93;;;;;;;;;;6096260;23;20376;-53
2020/12/20 08:24:57;;;;;;;1.83;1.10;;;;;;;;;;6071166;23;20146;-50
2020/12/20 08:27:31;;;;;;;2.40;0.98;;;;;;;;;;6098001;23;20304;-49
2020/12/20 08:29:59;;;;;;;10.93;2.22;;;;;;;;;;6098149;23;20007;-49
2020/12/20 08:32:36;;;;;;;3.72;1.10;;;;;;;;;;6097850;23;20014;-48
2020/12/20 08:35:10;;;;;;;1.35;0.80;;;;;;;;;;6097781;23;20022;-50
2020/12/20 08:37:37;;;;;;;4.00;1.20;;;;;;;;;;6097864;23;20013;-48
2020/12/20 08:40:14;;;;;;;3.47;1.38;;;;;;;;;;6097765;23;20073;-50
2020/12/20 08:42:42;;;;;;;2.92;1.40;;;;;;;;;;6098074;23;20007;-51
2020/12/20 08:45:14;;;;;;;3.03;1.25;;;;;;;;;;6097855;23;20006;-48
2020/12/20 08:47:42;;;;;;;3.90;1.47;;;;;;;;;;6097671;23;20006;-49
2020/12/20 08:50:10;;;;;;;3.22;1.20;;;;;;;;;;6098017;23;20226;-48
2020/12/20 08:52:37;;;;;;;2.58;1.05;;;;;;;;;;6071944;23;20375;-48
2020/12/20 08:55:05;;;;;;;4.78;1.05;;;;;;;;;;6097764;23;20002;-49
2020/12/20 08:57:32;;;;;;;3.20;1.15;;;;;;;;;;6072270;23;20033;-51
2020/12/20 09:00:17;;;;;;;2.58;1.00;;;;;;;;;;6072253;23;20007;-48
2020/12/20 09:02:44;;;;;;;2.88;1.30;;;;;;;;;;6097702;23;20011;-50
2020/12/20 09:05:15;;;;;;;2.45;1.25;;;;;;;;;;6097588;23;20077;-49
2020/12/20 09:07:46;;;;;;;2.90;1.23;;;;;;;;;;6097642;23;20006;-49
2020/12/20 09:10:14;;;;;;;4.17;1.70;;;;;;;;;;6097873;23;20312;-48
2020/12/20 09:12:49;;;;;;;3.50;1.40;;;;;;;;;;6097394;23;20021;-53
2020/12/20 09:15:17;;;;;;;2.45;1.10;;;;;;;;;;6097568;23;20110;-49
2020/12/20 09:17:45;;;;;;;2.05;1.00;;;;;;;;;;6097497;23;20074;-51
2020/12/20 09:20:17;;;;;;;2.63;0.93;;;;;;;;;;6097811;23;20495;-50
2020/12/20 09:22:45;;;;;;;2.17;0.80;;;;;;;;;;6097363;23;20033;-50
2020/12/20 09:25:13;;;;;;;3.67;1.35;;;;;;;;;;6097350;23;20018;-49
2020/12/20 09:27:51;;;;;;;2.60;1.17;;;;;;;;;;6072026;23;20034;-50
2020/12/20 09:30:18;;;;;;;1.65;0.88;;;;;;;;;;6097339;23;20352;-50
2020/12/20 09:32:45;;;;;;;3.30;1.13;;;;;;;;;;6097218;23;20017;-50
2020/12/20 09:35:12;;;;;;;4.55;0.98;;;;;;;;;;6097215;23;20024;-49
2020/12/20 09:37:42;;;;;;;2.90;0.95;;;;;;;;;;6097414;23;20003;-51
2020/12/20 09:40:10;;;;;;;2.13;0.82;;;;;;;;;;6097288;23;20002;-50
2020/12/20 09:42:40;;;;;;;1.40;0.85;;;;;;;;;;6097295;23;20333;-56
2020/12/20 09:45:08;;;;;;;4.25;1.30;;;;;;;;;;6097370;23;20022;-56
2020/12/20 09:47:39;;;;;;;4.10;0.95;;;;;;;;;;6097261;23;20026;-57
2020/12/20 09:50:07;;;;;;;1.83;1.10;;;;;;;;;;6097225;23;20066;-57
2020/12/20 09:52:34;;;;;;;1.77;0.75;;;;;;;;;;6097182;23;20230;-53
2020/12/20 09:55:01;;;;;;;3.28;1.08;;;;;;;;;;6097412;23;20002;-54
2020/12/20 09:57:28;;;;;;;2.55;1.00;;;;;;;;;;6096952;23;20042;-54
2020/12/20 09:59:55;;;;;;;2.22;1.02;;;;;;;;;;6097085;23;20005;-54
2020/12/20 10:02:22;;;;;;;2.45;0.90;;;;;;;;;;6097066;23;20021;-53
2020/12/20 10:04:49;;;;;;;1.98;0.80;;;;;;;;;;6096983;23;20014;-56
2020/12/20 10:07:16;;;;;;;3.22;1.02;;;;;;;;;;6097013;23;20007;-57
2020/12/20 10:09:47;;;;;;;3.67;1.08;;;;;;;;;;6097329;23;20002;-56
2020/12/20 10:12:16;;;;;;;2.10;1.00;;;;;;;;;;6096890;23;20028;-56
2020/12/20 10:14:43;;;;;;;3.22;1.08;;;;;;;;;;6096955;23;19999;-57
2020/12/20 10:17:10;;;;;;;2.38;1.30;;;;;;;;;;6071590;23;20435;-57
2020/12/20 10:19:37;;;;;;;1.95;0.80;;;;;;;;;;6096876;23;20008;-57
2020/12/20 10:22:04;;;;;;;3.65;1.10;;;;;;;;;;6096703;23;20085;-57
2020/12/20 10:24:32;;;;;;;2.78;1.02;;;;;;;;;;6097006;23;20331;-56
2020/12/20 10:26:59;;;;;;;2.40;1.20;;;;;;;;;;6096833;23;20061;-54
2020/12/20 10:29:26;;;;;;;2.80;0.75;;;;;;;;;;6096838;23;20026;-54
2020/12/20 10:31:53;;;;;;;3.83;1.17;;;;;;;;;;6096903;23;20017;-54
2020/12/20 10:34:21;;;;;;;2.55;0.75;;;;;;;;;;6096870;23;20077;-56
2020/12/20 10:36:50;;;;;;;2.13;0.82;;;;;;;;;;6096524;23;20011;-57
2020/12/20 10:39:18;;;;;;;1.60;0.88;;;;;;;;;;6097026;23;20002;-56
2020/12/20 10:41:45;;;;;;;2.50;1.00;;;;;;;;;;6096790;23;20012;-57
2020/12/20 10:44:13;;;;;;;2.15;0.90;;;;;;;;;;6096845;23;20002;-55
2020/12/20 10:46:40;;;;;;;3.92;1.00;;;;;;;;;;6096614;23;20003;-52
2020/12/20 10:49:07;;;;;;;3.72;0.95;;;;;;;;;;6096782;23;20018;-50
2020/12/20 10:51:34;;;;;;;2.13;0.90;;;;;;;;;;6096575;23;20459;-48
2020/12/20 10:54:01;;;;;;;5.32;0.98;;;;;;;;;;6096616;23;20003;-49
2020/12/20 10:56:28;;;;;;;2.60;0.93;;;;;;;;;;6096543;23;20335;-49
2020/12/20 10:58:55;;;;;;;1.30;0.80;;;;;;;;;;6096699;23;20002;-52
2020/12/20 11:01:22;;;;;;;3.22;1.10;;;;;;;;;;6096578;23;20007;-48
2020/12/20 11:03:49;;;;;;;1.70;0.80;;;;;;;;;;6096675;23;20014;-48
2020/12/20 11:06:25;;;;;;;2.30;1.00;;;;;;;;;;6096620;23;20382;-49
2020/12/20 11:08:52;;;;;;;2.88;0.90;;;;;;;;;;6096654;23;20002;-51
2020/12/20 11:11:20;;;;;;;2.65;0.80;;;;;;;;;;6096585;23;20379;-49
2020/12/20 11:13:47;;;;;;;1.38;0.80;;;;;;;;;;6096619;23;20005;-51
2020/12/20 11:16:17;;;;;;;1.90;0.50;;;;;;;;;;6096652;23;20085;-55
2020/12/20 11:18:46;;;;;;;1.67;0.70;;;;;;;;;;6096619;23;20334;-50
2020/12/20 11:21:17;;;;;;;3.53;1.10;;;;;;;;;;6096729;23;20077;-52
2020/12/20 11:23:44;;;;;;;1.50;0.63;;;;;;;;;;6096393;23;20010;-51
2020/12/20 11:26:16;;;;;;;1.75;0.80;;;;;;;;;;6096374;23;20018;-50
2020/12/20 11:28:43;;;;;;;0.82;0.60;;;;;;;;;;6096766;23;20073;-49
2020/12/20 11:31:14;;;;;;;2.60;1.00;;;;;;;;;;6096404;23;20014;-53
2020/12/20 11:33:41;;;;;;;1.40;0.75;;;;;;;;;;6096659;23;20009;-49
2020/12/20 11:36:09;;;;;;;2.65;1.13;;;;;;;;;;6096507;23;20339;-50
2020/12/20 11:38:36;;;;;;;1.45;0.70;;;;;;;;;;6096374;23;20380;-48
2020/12/20 11:41:05;;;;;;;1.40;0.70;;;;;;;;;;6070703;23;20384;-52
2020/12/20 11:43:32;;;;;;;2.40;1.10;;;;;;;;;;6096376;23;20026;-48
2020/12/20 11:45:59;;;;;;;2.33;1.02;;;;;;;;;;6096707;23;20070;-51
2020/12/20 11:48:26;;;;;;;3.25;0.73;;;;;;;;;;6096300;23;20065;-50
2020/12/20 11:50:53;;;;;;;1.50;0.90;;;;;;;;;;6096349;23;20003;-49
2020/12/20 11:53:20;;;;;;;2.50;0.75;;;;;;;;;;6071008;23;20034;-49
2020/12/20 11:55:47;;;;;;;2.47;0.73;;;;;;;;;;6096481;23;20046;-51
2020/12/20 11:58:16;;;;;;;2.33;0.68;;;;;;;;;;6096468;23;20131;-50
2020/12/20 12:00:44;;;;;;;2.72;0.70;;;;;;;;;;6097714;23;20078;-56
2020/12/20 12:03:13;;;;;;;2.47;1.05;;;;;;;;;;6098376;23;20018;-57
2020/12/20 12:05:40;;;;;;;2.30;0.88;;;;;;;;;;6098053;23;20010;-57
2020/12/20 12:08:07;;;;;;;2.60;0.80;;;;;;;;;;6098380;23;20002;-56
2020/12/20 12:10:35;;;;;;;2.05;0.75;;;;;;;;;;6072408;23;20010;-55
2020/12/20 12:13:02;;;;;;;3.38;0.85;;;;;;;;;;6098252;23;20085;-53
2020/12/20 12:15:30;;;;;;;1.60;0.60;;;;;;;;;;6098391;23;20009;-55
2020/12/20 12:17:57;;;;;;;1.48;0.60;;;;;;;;;;6097946;23;20014;-52
2020/12/20 12:20:24;;;;;;;3.13;0.70;;;;;;;;;;6098022;23;20002;-52
2020/12/20 12:22:51;;;;;;;1.95;0.70;;;;;;;;;;6098281;23;20036;-54
2020/12/20 12:25:18;;;;;;;2.78;1.10;;;;;;;;;;6097863;23;20317;-55
2020/12/20 12:27:45;;;;;;;1.98;0.70;;;;;;;;;;6098093;23;20454;-53
2020/12/20 12:30:12;;;;;;;2.25;0.90;;;;;;;;;;6098174;23;20483;-54
2020/12/20 12:32:40;;;;;;;6.43;0.68;;;;;;;;;;6097829;23;20019;-54
2020/12/20 12:35:08;;;;;;;3.00;0.90;;;;;;;;;;6097895;23;20009;-52
2020/12/20 12:37:35;;;;;;;4.50;1.17;;;;;;;;;;6072356;23;20010;-54
2020/12/20 12:40:02;;;;;;;3.55;0.68;;;;;;;;;;6098179;23;20069;-54
2020/12/20 12:42:29;;;;;;;1.85;0.52;;;;;;;;;;6097697;23;20014;-55
2020/12/20 12:44:56;;;;;;;1.30;0.70;;;;;;;;;;6097779;23;20053;-51
2020/12/20 12:47:23;;;;;;;2.65;0.70;;;;;;;;;;6097803;23;20002;-55
2020/12/20 12:49:51;;;;;;;2.15;0.85;;;;;;;;;;6097756;23;20073;-54
2020/12/20 12:52:18;;;;;;;2.63;0.93;;;;;;;;;;6097664;23;20427;-54
2020/12/20 12:54:45;;;;;;;2.53;0.63;;;;;;;;;;6098066;23;20006;-53
2020/12/20 12:57:11;;;;;;;2.83;0.85;;;;;;;;;;6072130;23;20368;-52
2020/12/20 12:59:38;;;;;;;1.77;0.70;;;;;;;;;;6072159;23;20003;-52
2020/12/20 13:02:05;;;;;;;5.72;0.68;;;;;;;;;;6098124;23;20010;-50
2020/12/20 13:04:34;;;;;;;3.28;0.70;;;;;;;;;;6097674;23;19998;-52
2020/12/20 13:07:01;;;;;;;1.98;0.93;;;;;;;;;;6097442;23;20086;-54
2020/12/20 13:09:28;;;;;;;3.47;0.70;;;;;;;;;;6097756;23;20003;-50
2020/12/20 13:11:55;;;;;;;2.15;0.80;;;;;;;;;;6096949;23;20014;-52
2020/12/20 13:14:22;;;;;;;3.65;0.85;;;;;;;;;;6097568;23;20058;-50
2020/12/20 13:16:52;;;;;;;1.42;0.68;;;;;;;;;;6097600;23;20081;-54
2020/12/20 13:19:20;;;;;;;1.70;0.55;;;;;;;;;;6097351;23;20033;-53
2020/12/20 13:21:47;;;;;;;3.45;0.88;;;;;;;;;;6097161;23;20010;-52
2020/12/20 13:24:14;;;;;;;1.55;0.63;;;;;;;;;;6071939;23;20003;-53
2020/12/20 13:26:41;;;;;;;2.30;0.68;;;;;;;;;;6096989;23;20033;-50
2020/12/20 13:29:08;;;;;;;3.03;0.70;;;;;;;;;;6097079;23;20524;-53
2020/12/20 13:31:35;;;;;;;1.58;0.60;;;;;;;;;;6097363;23;20435;-53
2020/12/20 13:34:02;;;;;;;1.50;0.63;;;;;;;;;;6097282;23;20059;-54
2020/12/20 13:36:29;;;;;;;1.73;0.80;;;;;;;;;;6097301;23;20372;-53
2020/12/20 13:38:57;;;;;;;1.50;0.50;;;;;;;;;;6097502;23;20029;-50
2020/12/20 13:41:25;;;;;;;2.05;0.82;;;;;;;;;;6097109;23;20344;-49
2020/12/20 13:43:52;;;;;;;2.55;0.60;;;;;;;;;;6097188;23;20048;-48
2020/12/20 13:46:19;;;;;;;2.70;0.60;;;;;;;;;;6097124;23;20134;-50
2020/12/20 13:48:46;;;;;;;4.93;0.90;;;;;;;;;;6097228;23;20029;-48
2020/12/20 13:51:13;;;;;;;1.73;0.63;;;;;;;;;;6096841;23;20439;-47
2020/12/20 13:53:41;;;;;;;1.60;0.70;;;;;;;;;;6097027;23;20435;-48
2020/12/20 13:56:09;;;;;;;1.83;0.75;;;;;;;;;;6097043;23;20006;-48
2020/12/20 13:58:36;;;;;;;5.45;0.73;;;;;;;;;;6071376;23;20054;-48
2020/12/20 14:01:03;;;;;;;2.85;1.10;;;;;;;;;;6071406;23;20006;-54
2020/12/20 14:03:30;;;;;;;2.47;0.70;;;;;;;;;;6097186;23;20002;-56
2020/12/20 14:05:57;;;;;;;2.55;0.73;;;;;;;;;;6096980;23;20013;-55
2020/12/20 14:08:24;;;;;;;1.73;0.68;;;;;;;;;;6097016;23;20090;-53
2020/12/20 14:10:51;;;;;;;1.25;0.50;;;;;;;;;;6096972;23;20009;-55
2020/12/20 14:13:18;;;;;;;2.95;0.95;;;;;;;;;;6097109;23;20317;-54
2020/12/20 14:15:45;;;;;;;5.38;1.08;;;;;;;;;;6096892;23;20059;-54
2020/12/20 14:18:12;;;;;;;1.58;0.60;;;;;;;;;;6096938;23;20030;-54
2020/12/20 14:20:39;;;;;;;1.50;0.60;;;;;;;;;;6096618;23;20009;-54
2020/12/20 14:23:06;;;;;;;0.98;0.50;;;;;;;;;;6096493;23;20013;-53
2020/12/20 14:25:33;;;;;;;1.00;0.52;;;;;;;;;;6096813;23;20010;-53
2020/12/20 14:28:00;;;;;;;1.30;0.47;;;;;;;;;;6096852;23;20090;-54
2020/12/20 14:30:27;;;;;;;1.58;0.60;;;;;;;;;;6096676;23;20006;-53
2020/12/20 14:32:54;;;;;;;1.35;0.68;;;;;;;;;;6096869;23;20042;-53
2020/12/20 14:35:21;;;;;;;1.55;0.70;;;;;;;;;;6096852;23;20431;-53
2020/12/20 14:37:50;;;;;;;4.68;0.98;;;;;;;;;;6096802;23;20422;-52
2020/12/20 14:40:17;;;;;;;3.38;0.60;;;;;;;;;;6097061;23;19998;-53
2020/12/20 14:42:43;;;;;;;3.42;0.45;;;;;;;;;;6096512;23;20450;-53
2020/12/20 14:45:10;;;;;;;2.17;0.60;;;;;;;;;;6096656;23;20518;-54
2020/12/20 14:47:38;;;;;;;1.05;0.50;;;;;;;;;;6096813;23;20006;-52